sensor_id;sensor_type;location;lat;lon;timestamp;temperature;humidity
11136;DHT22;5622;50.840;4.948;2023-11-19T07:09:27;11.40;99.90
11136;DHT22;5622;50.840;4.948;2023-11-19T07:11:54;11.30;99.90
11136;DHT22;5622;50.840;4.948;2023-11-19T07:14:27;11.30;99.90
11136;DHT22;5622;50.840;4.948;2023-11-19T07:16:54;11.20;99.90
11136;DHT22;5622;50.840;4.948;2023-11-19T07:19:22;11.30;99.90
11136;DHT22;5622;50.840;4.948;2023-11-19T07:21:49;11.40;99.90
11136;DHT22;5622;50.840;4.948;2023-11-19T07:24:16;11.40;99.90
11136;DHT22;5622;50.840;4.948;2023-11-19T07:26:47;11.40;99.90
11136;DHT22;5622;50.840;4.948;2023-11-19T07:29:14;11.30;99.90
11136;DHT22;5622;50.840;4.948;2023-11-19T07:31:42;11.30;99.90
11136;DHT22;5622;50.840;4.948;2023-11-19T07:34:09;11.30;99.90
11136;DHT22;5622;50.840;4.948;2023-11-19T07:36:38;11.30;99.90
11136;DHT22;5622;50.840;4.948;2023-11-19T07:39:05;11.30;99.90
11136;DHT22;5622;50.840;4.948;2023-11-19T07:41:32;11.30;99.90
11136;DHT22;5622;50.840;4.948;2023-11-19T07:44:01;11.30;99.90
11136;DHT22;5622;50.840;4.948;2023-11-19T07:46:29;11.30;99.90
11136;DHT22;5622;50.840;4.948;2023-11-19T07:48:57;11.30;99.90
11136;DHT22;5622;50.840;4.948;2023-11-19T07:51:24;11.30;99.90
11136;DHT22;5622;50.840;4.948;2023-11-19T07:53:52;11.40;99.90
11136;DHT22;5622;50.840;4.948;2023-11-19T07:56:19;11.40;99.90
11136;DHT22;5622;50.840;4.948;2023-11-19T07:58:47;11.40;99.90
11136;DHT22;5622;50.840;4.948;2023-11-19T08:01:17;11.40;99.90
11136;DHT22;5622;50.840;4.948;2023-11-19T08:03:45;11.40;99.90
11136;DHT22;5622;50.840;4.948;2023-11-19T08:06:13;11.40;99.90
11136;DHT22;5622;50.840;4.948;2023-11-19T08:08:40;11.40;99.90
11136;DHT22;5622;50.840;4.948;2023-11-19T08:11:08;11.40;99.90
11136;DHT22;5622;50.840;4.948;2023-11-19T08:13:35;11.40;99.90
11136;DHT22;5622;50.840;4.948;2023-11-19T08:16:03;11.40;99.90
11136;DHT22;5622;50.840;4.948;2023-11-19T08:18:31;11.50;99.90
11136;DHT22;5622;50.840;4.948;2023-11-19T08:20:58;11.50;99.90
11136;DHT22;5622;50.840;4.948;2023-11-19T08:23:26;11.50;99.90
11136;DHT22;5622;50.840;4.948;2023-11-19T08:25:54;11.50;99.90
11136;DHT22;5622;50.840;4.948;2023-11-19T08:28:22;11.50;99.90
11136;DHT22;5622;50.840;4.948;2023-11-19T08:30:49;11.60;99.90
11136;DHT22;5622;50.840;4.948;2023-11-19T08:33:16;11.60;99.90
11136;DHT22;5622;50.840;4.948;2023-11-19T08:35:44;11.60;99.90
11136;DHT22;5622;50.840;4.948;2023-11-19T08:38:13;11.60;99.90
11136;DHT22;5622;50.840;4.948;2023-11-19T08:40:40;11.60;99.90
11136;DHT22;5622;50.840;4.948;2023-11-19T08:43:07;11.60;99.90
11136;DHT22;5622;50.840;4.948;2023-11-19T08:45:37;11.40;99.90
11136;DHT22;5622;50.840;4.948;2023-11-19T08:48:06;11.70;99.90
11136;DHT22;5622;50.840;4.948;2023-11-19T08:50:33;11.70;99.90
11136;DHT22;5622;50.840;4.948;2023-11-19T08:53:03;11.70;99.90
11136;DHT22;5622;50.840;4.948;2023-11-19T08:55:32;11.70;99.90
11136;DHT22;5622;50.840;4.948;2023-11-19T08:57:59;11.80;99.90
11136;DHT22;5622;50.840;4.948;2023-11-19T09:00:28;11.80;99.90
11136;DHT22;5622;50.840;4.948;2023-11-19T09:02:57;11.80;99.90
11136;DHT22;5622;50.840;4.948;2023-11-19T09:05:27;11.80;99.90
11136;DHT22;5622;50.840;4.948;2023-11-19T09:07:54;11.90;99.90
11136;DHT22;5622;50.840;4.948;2023-11-19T09:10:25;11.90;99.90
11136;DHT22;5622;50.840;4.948;2023-11-19T09:12:52;12.00;99.90
11136;DHT22;5622;50.840;4.948;2023-11-19T09:15:19;12.10;99.90
11136;DHT22;5622;50.840;4.948;2023-11-19T09:17:49;12.10;99.90
11136;DHT22;5622;50.840;4.948;2023-11-19T09:20:17;12.10;99.90
11136;DHT22;5622;50.840;4.948;2023-11-19T09:22:44;12.10;99.90
11136;DHT22;5622;50.840;4.948;2023-11-19T09:25:11;12.10;99.90
11136;DHT22;5622;50.840;4.948;2023-11-19T09:27:44;12.10;99.90
11136;DHT22;5622;50.840;4.948;2023-11-19T09:30:12;12.10;99.90
11136;DHT22;5622;50.840;4.948;2023-11-19T09:32:42;12.10;99.90
11136;DHT22;5622;50.840;4.948;2023-11-19T09:35:09;12.10;99.90
11136;DHT22;5622;50.840;4.948;2023-11-19T09:37:39;12.10;99.90
11136;DHT22;5622;50.840;4.948;2023-11-19T09:40:08;12.10;99.90
11136;DHT22;5622;50.840;4.948;2023-11-19T09:42:47;12.10;99.90
11136;DHT22;5622;50.840;4.948;2023-11-19T09:45:16;12.10;99.90
11136;DHT22;5622;50.840;4.948;2023-11-19T09:47:45;12.20;99.90
11136;DHT22;5622;50.840;4.948;2023-11-19T09:50:17;12.20;99.90
11136;DHT22;5622;50.840;4.948;2023-11-19T09:52:45;12.20;99.90
11136;DHT22;5622;50.840;4.948;2023-11-19T09:55:12;12.10;99.90
11136;DHT22;5622;50.840;4.948;2023-11-19T09:57:39;12.10;99.90
11136;DHT22;5622;50.840;4.948;2023-11-19T10:00:13;12.20;99.90
11136;DHT22;5622;50.840;4.948;2023-11-19T10:02:41;12.30;99.90
11136;DHT22;5622;50.840;4.948;2023-11-19T10:05:11;12.20;99.90
11136;DHT22;5622;50.840;4.948;2023-11-19T10:07:42;12.40;99.90
11136;DHT22;5622;50.840;4.948;2023-11-19T10:10:10;12.40;99.90
11136;DHT22;5622;50.840;4.948;2023-11-19T10:12:44;12.40;99.90
11136;DHT22;5622;50.840;4.948;2023-11-19T10:15:19;12.40;99.90
11136;DHT22;5622;50.840;4.948;2023-11-19T10:17:46;12.50;99.90
11136;DHT22;5622;50.840;4.948;2023-11-19T10:20:14;12.40;99.90
11136;DHT22;5622;50.840;4.948;2023-11-19T10:22:41;12.40;99.90
11136;DHT22;5622;50.840;4.948;2023-11-19T10:25:21;12.40;99.90
11136;DHT22;5622;50.840;4.948;2023-11-19T10:27:49;12.40;99.90
11136;DHT22;5622;50.840;4.948;2023-11-19T10:30:20;12.40;99.90
11136;DHT22;5622;50.840;4.948;2023-11-19T10:33:04;12.40;99.90
11136;DHT22;5622;50.840;4.948;2023-11-19T10:35:32;12.50;99.90
11136;DHT22;5622;50.840;4.948;2023-11-19T10:38:00;12.50;99.90
11136;DHT22;5622;50.840;4.948;2023-11-19T10:40:38;12.50;99.90
11136;DHT22;5622;50.840;4.948;2023-11-19T10:43:06;12.60;99.90
11136;DHT22;5622;50.840;4.948;2023-11-19T10:45:36;12.60;99.90
11136;DHT22;5622;50.840;4.948;2023-11-19T10:48:05;12.60;99.90
11136;DHT22;5622;50.840;4.948;2023-11-19T10:50:35;12.50;99.90
11136;DHT22;5622;50.840;4.948;2023-11-19T10:53:03;12.70;99.90
11136;DHT22;5622;50.840;4.948;2023-11-19T10:55:31;12.70;99.90
11136;DHT22;5622;50.840;4.948;2023-11-19T10:58:00;12.80;99.90
11136;DHT22;5622;50.840;4.948;2023-11-19T11:00:46;12.80;99.90
11136;DHT22;5622;50.840;4.948;2023-11-19T11:03:17;12.90;99.90
11136;DHT22;5622;50.840;4.948;2023-11-19T11:05:46;12.90;99.90
11136;DHT22;5622;50.840;4.948;2023-11-19T11:08:14;12.90;99.90
11136;DHT22;5622;50.840;4.948;2023-11-19T11:10:44;12.90;99.90
11136;DHT22;5622;50.840;4.948;2023-11-19T11:13:14;12.90;99.90
11136;DHT22;5622;50.840;4.948;2023-11-19T11:15:42;13.00;99.90
11136;DHT22;5622;50.840;4.948;2023-11-19T11:18:13;13.10;99.90
11136;DHT22;5622;50.840;4.948;2023-11-19T11:20:41;13.10;99.90
11136;DHT22;5622;50.840;4.948;2023-11-19T11:26:23;13.10;99.90
11136;DHT22;5622;50.840;4.948;2023-11-19T11:28:59;13.10;99.90
11136;DHT22;5622;50.840;4.948;2023-11-19T11:31:36;13.10;99.90
11136;DHT22;5622;50.840;4.948;2023-11-19T11:34:34;13.10;99.90
11136;DHT22;5622;50.840;4.948;2023-11-19T11:37:13;13.10;99.90
11136;DHT22;5622;50.840;4.948;2023-11-19T11:39:46;13.10;99.90
11136;DHT22;5622;50.840;4.948;2023-11-19T11:42:35;13.10;99.90
11136;DHT22;5622;50.840;4.948;2023-11-19T11:45:11;13.10;99.90
11136;DHT22;5622;50.840;4.948;2023-11-19T11:48:11;13.10;99.90
11136;DHT22;5622;50.840;4.948;2023-11-19T11:50:56;13.10;99.90
11136;DHT22;5622;50.840;4.948;2023-11-19T11:53:35;13.10;99.90
11136;DHT22;5622;50.840;4.948;2023-11-19T11:56:16;13.20;99.90
11136;DHT22;5622;50.840;4.948;2023-11-19T11:58:46;13.10;99.90
11136;DHT22;5622;50.840;4.948;2023-11-19T12:01:29;13.10;99.90
11136;DHT22;5622;50.840;4.948;2023-11-19T12:04:17;13.10;99.90
11136;DHT22;5622;50.840;4.948;2023-11-19T12:26:37;13.20;99.90
11136;DHT22;5622;50.840;4.948;2023-11-19T12:29:07;13.20;99.90
11136;DHT22;5622;50.840;4.948;2023-11-19T12:31:36;13.40;99.90
11136;DHT22;5622;50.840;4.948;2023-11-19T12:34:09;13.50;99.90
11136;DHT22;5622;50.840;4.948;2023-11-19T12:36:40;13.50;99.90
11136;DHT22;5622;50.840;4.948;2023-11-19T12:39:11;13.50;99.90
11136;DHT22;5622;50.840;4.948;2023-11-19T12:41:52;13.50;99.90
11136;DHT22;5622;50.840;4.948;2023-11-19T12:44:20;13.40;99.90
11136;DHT22;5622;50.840;4.948;2023-11-19T12:47:00;13.40;99.90
11136;DHT22;5622;50.840;4.948;2023-11-19T12:49:27;13.40;99.90
11136;DHT22;5622;50.840;4.948;2023-11-19T12:51:54;13.40;99.90
11136;DHT22;5622;50.840;4.948;2023-11-19T12:54:32;13.30;99.90
11136;DHT22;5622;50.840;4.948;2023-11-19T12:57:01;13.30;99.90
11136;DHT22;5622;50.840;4.948;2023-11-19T12:59:29;13.30;99.90
11136;DHT22;5622;50.840;4.948;2023-11-19T13:01:56;13.20;99.90
11136;DHT22;5622;50.840;4.948;2023-11-19T13:04:27;13.00;99.90
11136;DHT22;5622;50.840;4.948;2023-11-19T13:06:57;13.00;99.90
11136;DHT22;5622;50.840;4.948;2023-11-19T13:09:27;13.10;99.90
11136;DHT22;5622;50.840;4.948;2023-11-19T13:11:56;13.00;99.90
11136;DHT22;5622;50.840;4.948;2023-11-19T13:14:36;13.00;99.90
11136;DHT22;5622;50.840;4.948;2023-11-19T13:17:04;12.90;99.90
11136;DHT22;5622;50.840;4.948;2023-11-19T13:19:31;12.90;99.90
11136;DHT22;5622;50.840;4.948;2023-11-19T13:21:58;13.00;99.90
11136;DHT22;5622;50.840;4.948;2023-11-19T13:24:27;13.00;99.90
11136;DHT22;5622;50.840;4.948;2023-11-19T13:26:54;13.00;99.90
11136;DHT22;5622;50.840;4.948;2023-11-19T13:29:22;13.10;99.90
11136;DHT22;5622;50.840;4.948;2023-11-19T13:31:50;13.10;99.90
11136;DHT22;5622;50.840;4.948;2023-11-19T13:34:17;13.10;99.90
11136;DHT22;5622;50.840;4.948;2023-11-19T13:36:45;13.20;99.90
11136;DHT22;5622;50.840;4.948;2023-11-19T13:39:12;13.20;99.90
11136;DHT22;5622;50.840;4.948;2023-11-19T13:41:48;13.10;99.90
11136;DHT22;5622;50.840;4.948;2023-11-19T13:44:16;13.10;99.90
11136;DHT22;5622;50.840;4.948;2023-11-19T13:46:44;13.10;99.90
11136;DHT22;5622;50.840;4.948;2023-11-19T13:49:15;13.00;99.90
11136;DHT22;5622;50.840;4.948;2023-11-19T13:51:47;13.10;99.90
11136;DHT22;5622;50.840;4.948;2023-11-19T13:54:14;13.00;99.90
11136;DHT22;5622;50.840;4.948;2023-11-19T14:00:07;12.80;99.90
11136;DHT22;5622;50.840;4.948;2023-11-19T14:02:38;12.80;99.90
11136;DHT22;5622;50.840;4.948;2023-11-19T14:05:29;12.80;99.90
11136;DHT22;5622;50.840;4.948;2023-11-19T14:11:27;12.70;99.90
11136;DHT22;5622;50.840;4.948;2023-11-19T14:17:35;12.80;99.90
11136;DHT22;5622;50.840;4.948;2023-11-19T14:23:50;12.60;99.90
11136;DHT22;5622;50.840;4.948;2023-11-19T14:29:41;12.50;99.90
11136;DHT22;5622;50.840;4.948;2023-11-19T14:35:34;12.50;99.90
11136;DHT22;5622;50.840;4.948;2023-11-19T14:38:02;12.50;99.90
11136;DHT22;5622;50.840;4.948;2023-11-19T14:40:34;12.50;99.90
11136;DHT22;5622;50.840;4.948;2023-11-19T14:43:01;12.50;99.90
11136;DHT22;5622;50.840;4.948;2023-11-19T14:45:42;12.60;99.90
11136;DHT22;5622;50.840;4.948;2023-11-19T14:48:11;12.60;99.90
11136;DHT22;5622;50.840;4.948;2023-11-19T14:50:38;12.50;99.90
11136;DHT22;5622;50.840;4.948;2023-11-19T14:53:25;12.50;99.90
11136;DHT22;5622;50.840;4.948;2023-11-19T14:59:51;12.60;99.90
11136;DHT22;5622;50.840;4.948;2023-11-19T15:12:37;12.80;99.90
11136;DHT22;5622;50.840;4.948;2023-11-19T15:18:44;12.70;99.90
11136;DHT22;5622;50.840;4.948;2023-11-19T15:24:57;12.70;99.90
11136;DHT22;5622;50.840;4.948;2023-11-19T15:31:11;12.70;99.90
11136;DHT22;5622;50.840;4.948;2023-11-19T15:44:07;12.60;99.90
11136;DHT22;5622;50.840;4.948;2023-11-19T15:50:18;12.50;99.90
11136;DHT22;5622;50.840;4.948;2023-11-19T15:56:23;12.50;99.90
11136;DHT22;5622;50.840;4.948;2023-11-19T16:09:19;12.60;99.90
11136;DHT22;5622;50.840;4.948;2023-11-19T16:12:08;12.60;99.90
11136;DHT22;5622;50.840;4.948;2023-11-19T16:14:37;12.60;99.90
11136;DHT22;5622;50.840;4.948;2023-11-19T16:17:04;12.60;99.90
11136;DHT22;5622;50.840;4.948;2023-11-19T16:19:32;12.60;99.90
11136;DHT22;5622;50.840;4.948;2023-11-19T16:22:02;12.70;99.90
11136;DHT22;5622;50.840;4.948;2023-11-19T16:24:36;12.70;99.90
11136;DHT22;5622;50.840;4.948;2023-11-19T16:27:04;12.60;99.90
11136;DHT22;5622;50.840;4.948;2023-11-19T16:29:31;12.70;99.90
11136;DHT22;5622;50.840;4.948;2023-11-19T16:31:58;12.60;99.90
11136;DHT22;5622;50.840;4.948;2023-11-19T16:34:25;12.60;99.90
11136;DHT22;5622;50.840;4.948;2023-11-19T16:36:53;12.60;99.90
11136;DHT22;5622;50.840;4.948;2023-11-19T16:39:22;12.60;99.90
11136;DHT22;5622;50.840;4.948;2023-11-19T16:41:50;12.70;99.90
11136;DHT22;5622;50.840;4.948;2023-11-19T16:44:17;12.60;99.90
11136;DHT22;5622;50.840;4.948;2023-11-19T16:46:44;12.60;99.90
11136;DHT22;5622;50.840;4.948;2023-11-19T16:49:12;12.60;99.90
11136;DHT22;5622;50.840;4.948;2023-11-19T16:51:41;12.60;99.90
11136;DHT22;5622;50.840;4.948;2023-11-19T16:54:12;12.70;99.90
11136;DHT22;5622;50.840;4.948;2023-11-19T16:56:43;12.60;99.90
11136;DHT22;5622;50.840;4.948;2023-11-19T16:59:11;12.50;99.90
11136;DHT22;5622;50.840;4.948;2023-11-19T17:01:41;12.50;99.90
11136;DHT22;5622;50.840;4.948;2023-11-19T17:04:08;12.40;99.90
11136;DHT22;5622;50.840;4.948;2023-11-19T17:06:37;12.40;99.90
11136;DHT22;5622;50.840;4.948;2023-11-19T17:09:07;12.30;99.90
11136;DHT22;5622;50.840;4.948;2023-11-19T17:11:38;12.20;99.90
11136;DHT22;5622;50.840;4.948;2023-11-19T17:14:07;12.20;99.90
11136;DHT22;5622;50.840;4.948;2023-11-19T17:16:36;12.20;99.90
11136;DHT22;5622;50.840;4.948;2023-11-19T17:19:05;12.20;99.90
11136;DHT22;5622;50.840;4.948;2023-11-19T17:21:32;12.10;99.90
11136;DHT22;5622;50.840;4.948;2023-11-19T17:23:59;12.10;99.90
11136;DHT22;5622;50.840;4.948;2023-11-19T17:26:26;12.00;99.90
11136;DHT22;5622;50.840;4.948;2023-11-19T17:28:53;12.00;99.90
11136;DHT22;5622;50.840;4.948;2023-11-19T17:31:23;12.00;99.90
11136;DHT22;5622;50.840;4.948;2023-11-19T17:33:53;12.00;99.90
11136;DHT22;5622;50.840;4.948;2023-11-19T17:36:20;11.90;99.90
11136;DHT22;5622;50.840;4.948;2023-11-19T17:38:48;11.90;99.90
11136;DHT22;5622;50.840;4.948;2023-11-19T17:41:15;11.80;99.90
11136;DHT22;5622;50.840;4.948;2023-11-19T17:43:42;11.80;99.90
11136;DHT22;5622;50.840;4.948;2023-11-19T17:46:09;11.80;99.90
11136;DHT22;5622;50.840;4.948;2023-11-19T17:48:36;11.80;99.90
11136;DHT22;5622;50.840;4.948;2023-11-19T17:51:05;11.80;99.90
11136;DHT22;5622;50.840;4.948;2023-11-19T17:53:33;11.90;99.90
11136;DHT22;5622;50.840;4.948;2023-11-19T17:56:03;11.80;99.90
11136;DHT22;5622;50.840;4.948;2023-11-19T17:58:30;11.80;99.90
11136;DHT22;5622;50.840;4.948;2023-11-19T18:00:57;11.80;99.90
11136;DHT22;5622;50.840;4.948;2023-11-19T18:03:24;11.70;99.90
11136;DHT22;5622;50.840;4.948;2023-11-19T18:05:56;11.70;99.90
11136;DHT22;5622;50.840;4.948;2023-11-19T18:08:25;11.80;99.90
11136;DHT22;5622;50.840;4.948;2023-11-19T18:10:53;11.80;99.90
11136;DHT22;5622;50.840;4.948;2023-11-19T18:13:24;11.80;99.90
11136;DHT22;5622;50.840;4.948;2023-11-19T18:15:51;11.80;99.90
11136;DHT22;5622;50.840;4.948;2023-11-19T18:18:19;11.80;99.90
11136;DHT22;5622;50.840;4.948;2023-11-19T18:20:47;11.80;99.90
11136;DHT22;5622;50.840;4.948;2023-11-19T18:23:15;11.70;99.90
11136;DHT22;5622;50.840;4.948;2023-11-19T18:25:44;11.70;99.90
11136;DHT22;5622;50.840;4.948;2023-11-19T18:28:12;11.70;99.90
11136;DHT22;5622;50.840;4.948;2023-11-19T18:30:41;11.70;99.90
11136;DHT22;5622;50.840;4.948;2023-11-19T18:33:08;11.70;99.90
11136;DHT22;5622;50.840;4.948;2023-11-19T18:35:37;11.80;99.90
11136;DHT22;5622;50.840;4.948;2023-11-19T18:38:04;11.80;99.90
11136;DHT22;5622;50.840;4.948;2023-11-19T18:40:32;11.80;99.90
11136;DHT22;5622;50.840;4.948;2023-11-19T18:43:03;11.70;99.90
11136;DHT22;5622;50.840;4.948;2023-11-19T18:45:30;11.70;99.90
11136;DHT22;5622;50.840;4.948;2023-11-19T18:47:59;11.70;99.90
11136;DHT22;5622;50.840;4.948;2023-11-19T18:50:26;11.70;99.90
11136;DHT22;5622;50.840;4.948;2023-11-19T18:52:54;12.20;99.90
11136;DHT22;5622;50.840;4.948;2023-11-19T18:55:22;11.70;99.90
11136;DHT22;5622;50.840;4.948;2023-11-19T18:57:49;11.70;99.90
11136;DHT22;5622;50.840;4.948;2023-11-19T19:00:19;11.70;99.90
11136;DHT22;5622;50.840;4.948;2023-11-19T19:02:49;11.70;99.90
11136;DHT22;5622;50.840;4.948;2023-11-19T19:05:16;11.70;99.90
11136;DHT22;5622;50.840;4.948;2023-11-19T19:07:43;11.70;99.90
11136;DHT22;5622;50.840;4.948;2023-11-19T19:10:14;11.80;99.90
11136;DHT22;5622;50.840;4.948;2023-11-19T19:12:41;11.70;99.90
11136;DHT22;5622;50.840;4.948;2023-11-19T19:15:10;11.70;99.90
11136;DHT22;5622;50.840;4.948;2023-11-19T19:17:39;11.70;99.90
11136;DHT22;5622;50.840;4.948;2023-11-19T19:20:08;11.70;99.90
11136;DHT22;5622;50.840;4.948;2023-11-19T19:22:36;11.70;99.90
11136;DHT22;5622;50.840;4.948;2023-11-19T19:25:06;11.60;99.90
11136;DHT22;5622;50.840;4.948;2023-11-19T19:27:33;11.80;99.90
11136;DHT22;5622;50.840;4.948;2023-11-19T19:30:04;11.70;99.90
11136;DHT22;5622;50.840;4.948;2023-11-19T19:32:31;11.70;99.90
11136;DHT22;5622;50.840;4.948;2023-11-19T19:35:01;11.70;99.90
11136;DHT22;5622;50.840;4.948;2023-11-19T19:37:30;11.70;99.90
11136;DHT22;5622;50.840;4.948;2023-11-19T19:40:01;11.80;99.90
11136;DHT22;5622;50.840;4.948;2023-11-19T19:42:29;11.70;99.90
11136;DHT22;5622;50.840;4.948;2023-11-19T19:44:56;11.80;99.90
11136;DHT22;5622;50.840;4.948;2023-11-19T19:47:23;11.70;99.90
11136;DHT22;5622;50.840;4.948;2023-11-19T19:49:52;11.80;99.90
11136;DHT22;5622;50.840;4.948;2023-11-19T19:52:21;11.80;99.90
11136;DHT22;5622;50.840;4.948;2023-11-19T19:54:48;11.80;99.90
11136;DHT22;5622;50.840;4.948;2023-11-19T19:57:18;11.80;99.90
11136;DHT22;5622;50.840;4.948;2023-11-19T19:59:46;11.80;99.90
11136;DHT22;5622;50.840;4.948;2023-11-19T20:02:15;11.80;99.90
11136;DHT22;5622;50.840;4.948;2023-11-19T20:04:44;11.80;99.90
11136;DHT22;5622;50.840;4.948;2023-11-19T20:07:12;11.80;99.90
11136;DHT22;5622;50.840;4.948;2023-11-19T20:09:41;11.80;99.90
11136;DHT22;5622;50.840;4.948;2023-11-19T20:12:09;11.80;99.90
11136;DHT22;5622;50.840;4.948;2023-11-19T20:14:36;11.80;99.90
11136;DHT22;5622;50.840;4.948;2023-11-19T20:17:04;11.70;99.90
11136;DHT22;5622;50.840;4.948;2023-11-19T20:19:33;11.70;99.90
11136;DHT22;5622;50.840;4.948;2023-11-19T20:22:01;11.70;99.90
11136;DHT22;5622;50.840;4.948;2023-11-19T20:24:28;11.70;99.90
11136;DHT22;5622;50.840;4.948;2023-11-19T20:26:56;11.70;99.90
11136;DHT22;5622;50.840;4.948;2023-11-19T20:29:24;11.70;99.90
11136;DHT22;5622;50.840;4.948;2023-11-19T20:31:51;11.70;99.90
11136;DHT22;5622;50.840;4.948;2023-11-19T20:34:18;11.70;99.90
11136;DHT22;5622;50.840;4.948;2023-11-19T20:36:45;11.70;99.90
11136;DHT22;5622;50.840;4.948;2023-11-19T20:39:12;11.70;99.90
11136;DHT22;5622;50.840;4.948;2023-11-19T20:41:40;11.70;99.90
11136;DHT22;5622;50.840;4.948;2023-11-19T20:44:10;11.70;99.90
11136;DHT22;5622;50.840;4.948;2023-11-19T20:46:38;11.70;99.90
11136;DHT22;5622;50.840;4.948;2023-11-19T20:49:05;11.60;99.90
11136;DHT22;5622;50.840;4.948;2023-11-19T20:51:32;11.70;99.90
11136;DHT22;5622;50.840;4.948;2023-11-19T20:53:59;11.60;99.90
11136;DHT22;5622;50.840;4.948;2023-11-19T20:56:26;11.60;99.90
11136;DHT22;5622;50.840;4.948;2023-11-19T20:58:54;11.80;99.90
11136;DHT22;5622;50.840;4.948;2023-11-19T21:01:23;11.70;99.90
11136;DHT22;5622;50.840;4.948;2023-11-19T21:03:54;11.70;99.90
11136;DHT22;5622;50.840;4.948;2023-11-19T21:06:21;11.70;99.90
11136;DHT22;5622;50.840;4.948;2023-11-19T21:08:49;11.70;99.90
11136;DHT22;5622;50.840;4.948;2023-11-19T21:11:17;11.70;99.90
11136;DHT22;5622;50.840;4.948;2023-11-19T21:13:44;11.70;99.90
11136;DHT22;5622;50.840;4.948;2023-11-19T21:16:13;11.70;99.90
11136;DHT22;5622;50.840;4.948;2023-11-19T21:18:41;11.70;99.90
11136;DHT22;5622;50.840;4.948;2023-11-19T21:21:09;11.70;99.90
11136;DHT22;5622;50.840;4.948;2023-11-19T21:23:39;11.70;99.90
11136;DHT22;5622;50.840;4.948;2023-11-19T21:26:07;11.70;99.90
11136;DHT22;5622;50.840;4.948;2023-11-19T21:28:34;11.70;99.90
11136;DHT22;5622;50.840;4.948;2023-11-19T21:31:03;11.70;99.90
11136;DHT22;5622;50.840;4.948;2023-11-19T21:33:31;11.60;99.90
11136;DHT22;5622;50.840;4.948;2023-11-19T21:36:00;11.60;99.90
11136;DHT22;5622;50.840;4.948;2023-11-19T21:38:28;11.60;99.90
11136;DHT22;5622;50.840;4.948;2023-11-19T21:40:55;11.60;99.90
11136;DHT22;5622;50.840;4.948;2023-11-19T21:43:22;11.60;99.90
11136;DHT22;5622;50.840;4.948;2023-11-19T21:45:51;11.50;99.90
11136;DHT22;5622;50.840;4.948;2023-11-19T21:48:19;11.50;99.90
11136;DHT22;5622;50.840;4.948;2023-11-19T21:50:47;11.50;99.90
11136;DHT22;5622;50.840;4.948;2023-11-19T21:53:18;11.60;99.90
11136;DHT22;5622;50.840;4.948;2023-11-19T21:55:45;11.60;99.90
11136;DHT22;5622;50.840;4.948;2023-11-19T21:58:12;11.60;99.90
11136;DHT22;5622;50.840;4.948;2023-11-19T22:00:39;11.60;99.90
11136;DHT22;5622;50.840;4.948;2023-11-19T22:03:07;11.60;99.90
11136;DHT22;5622;50.840;4.948;2023-11-19T22:05:34;11.70;99.90
11136;DHT22;5622;50.840;4.948;2023-11-19T22:08:02;11.70;99.90
11136;DHT22;5622;50.840;4.948;2023-11-19T22:10:30;11.70;99.90
11136;DHT22;5622;50.840;4.948;2023-11-19T22:12:58;11.70;99.90
11136;DHT22;5622;50.840;4.948;2023-11-19T22:15:25;11.70;99.90
11136;DHT22;5622;50.840;4.948;2023-11-19T22:17:53;11.70;99.90
11136;DHT22;5622;50.840;4.948;2023-11-19T22:20:20;11.70;99.90
11136;DHT22;5622;50.840;4.948;2023-11-19T22:22:48;11.70;99.90
11136;DHT22;5622;50.840;4.948;2023-11-19T22:25:16;11.60;99.90
11136;DHT22;5622;50.840;4.948;2023-11-19T22:27:46;11.70;99.90
11136;DHT22;5622;50.840;4.948;2023-11-19T22:30:13;11.70;99.90
11136;DHT22;5622;50.840;4.948;2023-11-19T22:32:40;11.60;99.90
11136;DHT22;5622;50.840;4.948;2023-11-19T22:35:08;11.60;99.90
11136;DHT22;5622;50.840;4.948;2023-11-19T22:37:36;11.60;99.90
11136;DHT22;5622;50.840;4.948;2023-11-19T22:40:05;11.60;99.90
11136;DHT22;5622;50.840;4.948;2023-11-19T22:42:34;11.60;99.90
11136;DHT22;5622;50.840;4.948;2023-11-19T22:45:05;11.60;99.90
11136;DHT22;5622;50.840;4.948;2023-11-19T22:47:32;11.60;99.90
11136;DHT22;5622;50.840;4.948;2023-11-19T22:49:59;11.60;99.90
11136;DHT22;5622;50.840;4.948;2023-11-19T22:52:26;11.60;99.90
11136;DHT22;5622;50.840;4.948;2023-11-19T22:54:55;11.60;99.90
11136;DHT22;5622;50.840;4.948;2023-11-19T22:57:22;11.60;99.90
11136;DHT22;5622;50.840;4.948;2023-11-19T22:59:50;11.60;99.90
11136;DHT22;5622;50.840;4.948;2023-11-19T23:02:18;11.60;99.90
11136;DHT22;5622;50.840;4.948;2023-11-19T23:04:45;11.70;99.90
11136;DHT22;5622;50.840;4.948;2023-11-19T23:07:12;11.70;99.90
11136;DHT22;5622;50.840;4.948;2023-11-19T23:09:40;11.70;99.90
11136;DHT22;5622;50.840;4.948;2023-11-19T23:12:08;11.70;99.90
11136;DHT22;5622;50.840;4.948;2023-11-19T23:14:36;11.70;99.90
11136;DHT22;5622;50.840;4.948;2023-11-19T23:17:03;11.80;99.90
11136;DHT22;5622;50.840;4.948;2023-11-19T23:19:34;11.80;99.90
11136;DHT22;5622;50.840;4.948;2023-11-19T23:22:02;11.80;99.90
11136;DHT22;5622;50.840;4.948;2023-11-19T23:24:29;11.90;99.90
11136;DHT22;5622;50.840;4.948;2023-11-19T23:26:56;11.90;99.90
11136;DHT22;5622;50.840;4.948;2023-11-19T23:29:24;11.90;99.90
11136;DHT22;5622;50.840;4.948;2023-11-19T23:31:51;11.80;99.90
11136;DHT22;5622;50.840;4.948;2023-11-19T23:34:18;11.90;99.90
11136;DHT22;5622;50.840;4.948;2023-11-19T23:36:49;12.00;99.90
11136;DHT22;5622;50.840;4.948;2023-11-19T23:39:19;11.90;99.90
11136;DHT22;5622;50.840;4.948;2023-11-19T23:41:46;11.90;99.90
11136;DHT22;5622;50.840;4.948;2023-11-19T23:44:15;11.90;99.90
11136;DHT22;5622;50.840;4.948;2023-11-19T23:46:44;11.90;99.90
11136;DHT22;5622;50.840;4.948;2023-11-19T23:49:11;11.90;99.90
11136;DHT22;5622;50.840;4.948;2023-11-19T23:51:38;11.90;99.90
11136;DHT22;5622;50.840;4.948;2023-11-19T23:54:07;11.90;99.90
11136;DHT22;5622;50.840;4.948;2023-11-19T23:56:34;11.90;99.90
11136;DHT22;5622;50.840;4.948;2023-11-19T23:59:01;11.80;99.90
